METAR ET TAF INFORMATION
METAR FOR KEVM
ADDS - METARS form results

(0113 UTC 21 August 2019)
Data provider http://aviationweather.gov/metar/data/
 
METAR text: KEVM 210059Z AUTO 32005KT 10SM CLR 20/14 A2999 RMK AO2 T01950135
Conditions at: KEVM (EVELETH MUNI , MN, US) observed 0059 UTC 21 August 2019
Temperature: 19.5°C (67°F)
Dewpoint: 13.5°C (56°F) [RH = 68%]
Pressure (altimeter): 29.99 inches Hg (1015.7 mb)
Winds: from the NW (320 degrees) at 6 MPH (5 knots; 2.6 m/s)
Visibility: 10 or more miles (16+ km)
Ceiling: at least 12,000 feet AGL
Clouds: sky clear below 12,000 feet AGL
Weather: automated observation with no human augmentation;
there may or may not be significant weather present at this time

METAR text: KEVM 210036Z AUTO 33004KT 10SM SCT038 20/14 A2999 RMK AO2 T02000143
Conditions at: KEVM (EVELETH MUNI , MN, US) observed 0036 UTC 21 August 2019
Temperature: 20.0°C (68°F)
Dewpoint: 14.3°C (58°F) [RH = 70%]
Pressure (altimeter): 29.99 inches Hg (1015.7 mb)
Winds: from the NNW (330 degrees) at 5 MPH (4 knots; 2.1 m/s)
Visibility: 10 or more miles (16+ km)
Ceiling: at least 12,000 feet AGL
Clouds: scattered clouds at 3800 feet AGL
Weather: automated observation with no human augmentation;
there may or may not be significant weather present at this time

METAR text: KEVM 210035Z AUTO 32004KT 10SM SCT036 20/14 A2999 RMK AO2 T02000143
Conditions at: KEVM (EVELETH MUNI , MN, US) observed 0035 UTC 21 August 2019
Temperature: 20.0°C (68°F)
Dewpoint: 14.3°C (58°F) [RH = 70%]
Pressure (altimeter): 29.99 inches Hg (1015.7 mb)
Winds: from the NW (320 degrees) at 5 MPH (4 knots; 2.1 m/s)
Visibility: 10 or more miles (16+ km)
Ceiling: at least 12,000 feet AGL
Clouds: scattered clouds at 3600 feet AGL
Weather: automated observation with no human augmentation;
there may or may not be significant weather present at this time

METAR text: KEVM 210016Z AUTO 30004KT 10SM CLR 21/14 A2998 RMK AO2 T02070144
Conditions at: KEVM (EVELETH MUNI , MN, US) observed 0016 UTC 21 August 2019
Temperature: 20.7°C (69°F)
Dewpoint: 14.4°C (58°F) [RH = 67%]
Pressure (altimeter): 29.98 inches Hg (1015.3 mb)
Winds: from the WNW (300 degrees) at 5 MPH (4 knots; 2.1 m/s)
Visibility: 10 or more miles (16+ km)
Ceiling: at least 12,000 feet AGL
Clouds: sky clear below 12,000 feet AGL
Weather: automated observation with no human augmentation;
there may or may not be significant weather present at this time

METAR text: KEVM 210015Z AUTO 30006KT 10SM CLR 21/14 A2998 RMK AO2 T02070144
Conditions at: KEVM (EVELETH MUNI , MN, US) observed 0015 UTC 21 August 2019
Temperature: 20.7°C (69°F)
Dewpoint: 14.4°C (58°F) [RH = 67%]
Pressure (altimeter): 29.98 inches Hg (1015.3 mb)
Winds: from the WNW (300 degrees) at 7 MPH (6 knots; 3.1 m/s)
Visibility: 10 or more miles (16+ km)
Ceiling: at least 12,000 feet AGL
Clouds: sky clear below 12,000 feet AGL
Weather: automated observation with no human augmentation;
there may or may not be significant weather present at this time

 AÉROPORT DE AÉROPORT

 INFORMATIONS DE PISTE
Piste 05 Longueur de la piste 2685 ft Largeur de la piste 110 ft
Élévation de la piste 0 ft Seuil de la piste déplacés 0 ft Runway heading 51
Piste 23 Longueur de la piste 2685 ft Largeur de la piste 110 ft
Élévation de la piste 0 ft Seuil de la piste déplacés 885 ft Runway heading 231
Piste 09 Longueur de la piste 4215 ft Largeur de la piste 100 ft
Élévation de la piste 1376 ft Seuil de la piste déplacés 0 ft Runway heading 94
Piste 27 Longueur de la piste 4215 ft Largeur de la piste 100 ft
Élévation de la piste 1369 ft Seuil de la piste déplacés 0 ft Runway heading 274
Piste 14 Longueur de la piste 2506 ft Largeur de la piste 100 ft
Élévation de la piste 1378 ft Seuil de la piste déplacés 0 ft Runway heading 139
Piste 32 Longueur de la piste 2506 ft Largeur de la piste 100 ft
Élévation de la piste 1369 ft Seuil de la piste déplacés 0 ft Runway heading 319

 AÉROPORT FRÉQUENCES
Type A/D Nom DULUTH APP Féquence 125.45 MHZ
Type AWOS Nom AWOS 3 Féquence 108.2 MHZ
Type RDO Nom PRINCETON Féquence 122.45 MHZ
Type UNIC Nom CTAF/UNICO Féquence 122.7 MHZ

 SIDA DE NAVIGATION



Powered by Virtual Airlines Manager [v2.6.2]